Aérodrome :
LOGIN :

S'inscrire | Disclaimer

   EN    FR    IT 

 










Légende :    VFR   VFR Marginal   IFR   IFR Intensif   IFR Très Intensif
Visi : 
Plafond : 
>= 8 km
>= 3000ft
5 à 8 km
1000 à 3000 ft
1500m à 5 km
500 à 1000 ft
800 à 1500m
200 à 500 ft
< 800m
< 200 ft
Symboles :   Orages  Brouillard  Fortes neiges  Fortes précipitations  Vent > 20 kt
SIGMETs :   Divers  Orages  Givrage  Turbulence  Onde Orograph.  Cendres Volcan.







- Altitude de l'aérodrome : 1058 ft
- Code IATA : SCN


EDDR - Saarbrücken

DERNIER METAR :
  • 200720Z 22006KT 6000 FEW005 SCT015 BKN080 00/M01 Q1022 NOSIG

METARs EXPIRÉS :
  • 200650Z 23004KT 5000 BR FEW004 SCT014 BKN018 M00/M01 Q1022 NOSIG
  • 200620Z 23004KT 210V270 6000 FEW004 BKN018 M00/M01 Q1022 NOSIG
  • 200550Z 23004KT 210V270 9000 SCT003 BKN015 M00/M01 Q1022 TEMPO BKN010
  • 200520Z VRB02KT 9000 FEW003 BKN015 M00/M01 Q1022 TEMPO BKN010
  • 200450Z 19003KT 9000 SCT018 BKN094 M00/M01 Q1022 NOSIG

TAF TAF EDDR
Valide du 20 à 06h jusqu'au 21 à 06h UTC


200500Z 2006/2106 22006KT 9999 FEW010 BKN020
TEMPO 2006/2009 BKN010
BECMG 2013/2016 22012KT BKN012
TEMPO 2016/2106 4000 RADZ BKN008
TEMPO 2019/2106 22015G25KT
PROB40
TEMPO 2100/2106 2000 RADZ BKN004
Pas de NOTAMs connus pour ce terrain.



MET'MAP, la Météo Aéronautique d'un coup d'oeil ! - Copyright ORBIFLY Décembre 2007 - Disclaimer

ORBIFLY MET'MAP TEAM :

Programmation & Développement : Alexandra Zaïnal
Conception & Développement : Baudouin d'Aumeries
Co-Programmation & Développement : Marc-Olivier Méhu
Soutien technique & logistique : Manuel Goepfert

Contact : metmap@orbifly.com




SOURCES & CREDITS :

   NOAA